HappyWetter - St.Margarethen im Burgenland
Wetterdaten: aktuell Sonntag, 17.02.2019 14:49
Datum Zeit Temp. A. Feuchte A. Luftdruck Regen Wind Richtung Richtung Sonnenschein ET Solar Taupunkt Windchill Windben Empfang
17.02.2019 14:49 9,7 C 67 % 1026,1 hPa 0,0 l/m 0,0 km/h (0 Bft) N 355 59 min 0,178 mm 93 W/m 3,9 C 9,7 C 0,0 km/h (0 Bft) 100,00 %
17.02.2019 13:49 9,1 C 70 % 1026,7 hPa 0,0 l/m 0,0 km/h (0 Bft) N 355 60 min 0,203 mm 332 W/m 3,9 C 9,1 C 0,0 km/h (0 Bft) 100,00 %
17.02.2019 12:49 8,2 C 73 % 1027,3 hPa 0,0 l/m 0,0 km/h (0 Bft) N 355 60 min 0,178 mm 457 W/m 3,7 C 8,2 C 0,0 km/h (0 Bft) 100,00 %
17.02.2019 11:49 6,5 C 82 % 1028,3 hPa 0,0 l/m 0,0 km/h (0 Bft) N 355 53 min 0,101 mm 473 W/m 3,7 C 6,5 C 0,0 km/h (0 Bft) 100,00 %
17.02.2019 10:49 4,3 C 92 % 1028,7 hPa 0,0 l/m 5,0 km/h (1 Bft) N 355 53 min 0,077 mm 84 W/m 3,1 C 4,3 C 6,4 km/h (2 Bft) 100,00 %
17.02.2019 09:49 0,9 C 92 % 1028,7 hPa 0,0 l/m 0,0 km/h (0 Bft) N 355 40 min 0,025 mm 308 W/m -0,2 C 0,9 C 0,0 km/h (0 Bft) 96,00 %
17.02.2019 08:49 -3,3 C 90 % 1028,8 hPa 0,0 l/m 0,0 km/h (0 Bft) N 355 0 min 0,000 mm 148 W/m -4,7 C -3,3 C 0,0 km/h (0 Bft) 100,00 %
17.02.2019 07:49 -4,5 C 88 % 1028,6 hPa 0,0 l/m 0,0 km/h (0 Bft) N 355 0 min 0,000 mm 39 W/m -6,2 C -4,5 C 0,0 km/h (0 Bft) 96,00 %
17.02.2019 06:49 -4,4 C 88 % 1027,9 hPa 0,0 l/m 0,0 km/h (0 Bft) N 355 0 min 0,000 mm 0 W/m -6,1 C -4,4 C 0,0 km/h (0 Bft) 100,00 %
17.02.2019 05:49 -3,9 C 88 % 1027,9 hPa 0,0 l/m 0,0 km/h (0 Bft) N 355 0 min 0,000 mm 0 W/m -5,6 C -3,9 C 0,0 km/h (0 Bft) 92,00 %
17.02.2019 04:49 -3,8 C 87 % 1027,8 hPa 0,0 l/m 0,0 km/h (0 Bft) N 355 0 min 0,000 mm 0 W/m -5,6 C -3,8 C 0,0 km/h (0 Bft) 100,00 %
17.02.2019 03:48 -3,1 C 86 % 1027,7 hPa 0,0 l/m 0,0 km/h (0 Bft) N 355 0 min 0,000 mm 0 W/m -5,1 C -3,1 C 0,0 km/h (0 Bft) 100,00 %
17.02.2019 02:48 -2,9 C 85 % 1027,9 hPa 0,0 l/m 0,0 km/h (0 Bft) N 355 0 min 0,000 mm 0 W/m -5,1 C -2,9 C 0,0 km/h (0 Bft) 96,00 %
17.02.2019 01:48 -2,2 C 85 % 1028,1 hPa 0,0 l/m 0,0 km/h (0 Bft) N 355 0 min 0,000 mm 0 W/m -4,4 C -2,2 C 0,0 km/h (0 Bft) 100,00 %
17.02.2019 00:47 -2,2 C 83 % 1028,3 hPa 0,0 l/m 0,0 km/h (0 Bft) N 355 0 min 0,000 mm 0 W/m -4,7 C -2,2 C 0,0 km/h (0 Bft) 100,00 %
16.02.2019 23:47 -1,2 C 81 % 1028,9 hPa 0,0 l/m 0,0 km/h (0 Bft) N 355 0 min 0,000 mm 0 W/m -4,0 C -1,2 C 0,0 km/h (0 Bft) 100,00 %
16.02.2019 22:47 -0,4 C 79 % 1029,1 hPa 0,0 l/m 0,0 km/h (0 Bft) N 355 0 min 0,000 mm 0 W/m -3,6 C -0,4 C 0,0 km/h (0 Bft) 100,00 %
16.02.2019 21:46 0,8 C 78 % 1029,2 hPa 0,0 l/m 0,0 km/h (0 Bft) N 355 0 min 0,025 mm 0 W/m -2,6 C 0,8 C 0,0 km/h (0 Bft) 100,00 %
16.02.2019 20:46 1,7 C 74 % 1029,4 hPa 0,0 l/m 0,0 km/h (0 Bft) N 355 0 min 0,025 mm 0 W/m -2,4 C 1,7 C 0,0 km/h (0 Bft) 100,00 %
16.02.2019 19:46 3,4 C 71 % 1029,6 hPa 0,0 l/m 0,0 km/h (0 Bft) N 355 0 min 0,001 mm 0 W/m -1,3 C 3,4 C 0,0 km/h (0 Bft) 100,00 %
16.02.2019 18:46 5,7 C 65 % 1029,5 hPa 0,0 l/m 0,0 km/h (0 Bft) N 355 0 min 0,000 mm 0 W/m -0,4 C 5,7 C 0,0 km/h (0 Bft) 100,00 %
16.02.2019 17:46 9,2 C 60 % 1029,0 hPa 0,0 l/m 0,0 km/h (0 Bft) N 355 0 min 0,025 mm 0 W/m 1,8 C 9,2 C 0,0 km/h (0 Bft) 100,00 %
16.02.2019 16:46 11,1 C 57 % 1028,8 hPa 0,0 l/m 0,0 km/h (0 Bft) N 355 7 min 0,076 mm 26 W/m 2,9 C 11,1 C 0,0 km/h (0 Bft) 100,00 %
16.02.2019 15:46 11,4 C 56 % 1029,2 hPa 0,0 l/m 0,0 km/h (0 Bft) N 355 22 min 0,102 mm 169 W/m 2,9 C 11,4 C 0,0 km/h (0 Bft) 100,00 %
16.02.2019 15:00 11,4 C 54 % 1029,5 hPa 0,0 l/m 0,0 km/h (0 Bft) N 355 0 min 0,000 mm 139 W/m 2,4 C 11,4 C 0,0 km/h (0 Bft) 100,00 %
_ Min-Zeit 07:45 15:10 14:48 - 14:49 - - - - - 07:45 07:45 14:49 08:38
Minimum _ -4,6 C 54 % 1026,0 hPa - 0,0 km/h (0 Bft) - - - - - -6,3 C -4,6 C 0,0 km/h (0 Bft) 76,92 %
_ Max-Zeit 15:33 10:41 19:54 14:49 13:10 - - 14:48 13:01 12:03 13:40 15:33 13:18 14:49
Maximum _ 11,6 C 93 % 1029,7 hPa 0,0 l/m 5,9 km/h
N (2 Bft)
- - 1 min 0,203 mm 478 W/m 4,0 C 11,6 C 8,0 km/h
N (2 Bft)
100,00 %
Durchschnitt _ 2,8 C 76 % 1028,5 hPa #0,0 l/m 0,1 km/h (0 Bft) N - #5:25 h #0,762 mm 278 W/m -1,3 C 2,8 C 0,2 km/h (0 Bft) 98,68 %